createdAt,value
2022-08-12T00:00:43.221Z,14.92
2022-08-12T00:02:03.172Z,14.85
2022-08-12T00:02:44.243Z,14.81
2022-08-12T00:03:44.193Z,14.86
2022-08-12T00:04:43.184Z,14.77
2022-08-12T00:06:01.735Z,14.78
2022-08-12T00:06:44.164Z,14.79
2022-08-12T00:07:43.186Z,14.82
2022-08-12T00:08:43.152Z,14.72
2022-08-12T00:09:43.144Z,14.65
2022-08-12T00:10:43.139Z,14.73
2022-08-12T00:11:43.138Z,14.60
2022-08-12T00:12:43.152Z,14.70
2022-08-12T00:13:43.117Z,14.62
2022-08-12T00:14:43.109Z,14.70
2022-08-12T00:15:43.102Z,14.63
2022-08-12T00:16:43.095Z,14.60
2022-08-12T00:17:43.117Z,14.65
2022-08-12T00:18:43.079Z,14.58
2022-08-12T00:19:43.069Z,14.54
2022-08-12T00:20:43.060Z,14.60
2022-08-12T00:21:43.057Z,14.55
2022-08-12T00:22:43.074Z,14.51
2022-08-12T00:23:43.043Z,14.53
2022-08-12T00:24:43.028Z,14.59
2022-08-12T00:25:43.027Z,14.54
2022-08-12T00:26:44.020Z,14.48
2022-08-12T00:27:43.672Z,14.54
2022-08-12T00:28:43.003Z,14.51
2022-08-12T00:29:47.322Z,14.44
2022-08-12T00:30:44.985Z,14.44
2022-08-12T00:31:42.979Z,14.30
2022-08-12T00:32:44.392Z,14.33
2022-08-12T00:33:52.290Z,14.30
2022-08-12T00:34:43.949Z,14.25
2022-08-12T00:35:42.944Z,14.30
2022-08-12T00:36:42.942Z,14.30
2022-08-12T00:37:42.957Z,14.17
2022-08-12T00:38:42.920Z,14.18
2022-08-12T00:39:42.985Z,14.30
2022-08-12T00:40:42.908Z,14.26
2022-08-12T00:41:42.901Z,14.17
2022-08-12T00:42:43.136Z,14.28
2022-08-12T00:43:42.878Z,14.25
2022-08-12T00:44:43.879Z,14.26
2022-08-12T00:45:42.868Z,14.14
2022-08-12T00:46:42.854Z,14.17
2022-08-12T00:47:42.882Z,14.20
2022-08-12T00:48:42.842Z,14.14
2022-08-12T00:49:42.845Z,14.11
2022-08-12T00:50:43.825Z,14.18
2022-08-12T00:51:42.827Z,14.14
2022-08-12T00:52:42.837Z,14.18
2022-08-12T00:53:42.807Z,14.04
2022-08-12T00:54:42.792Z,14.12
2022-08-12T00:55:42.792Z,13.99
2022-08-12T00:56:42.783Z,13.97
2022-08-12T00:57:42.798Z,13.93
2022-08-12T00:58:42.765Z,14.00
2022-08-12T00:59:42.758Z,13.96
2022-08-12T01:00:42.749Z,13.92
2022-08-12T01:02:10.609Z,13.93
2022-08-12T01:02:43.758Z,13.79
2022-08-12T01:03:42.735Z,13.79
2022-08-12T01:04:42.720Z,13.87
2022-08-12T01:05:42.717Z,13.86
2022-08-12T01:06:42.711Z,13.89
2022-08-12T01:07:42.719Z,13.87
2022-08-12T01:08:42.691Z,13.86
2022-08-12T01:09:42.680Z,13.96
2022-08-12T01:10:42.670Z,13.85
2022-08-12T01:11:42.664Z,13.77
2022-08-12T01:12:42.685Z,13.85
2022-08-12T01:13:42.646Z,13.86
2022-08-12T01:14:42.642Z,13.85
2022-08-12T01:15:42.635Z,13.78
2022-08-12T01:16:42.621Z,13.74
2022-08-12T01:17:42.763Z,13.71
2022-08-12T01:18:42.610Z,13.74
2022-08-12T01:19:42.603Z,13.74
2022-08-12T01:20:42.594Z,13.72
2022-08-12T01:21:42.598Z,13.72
2022-08-12T01:22:42.617Z,13.62
2022-08-12T01:23:42.583Z,13.68
2022-08-12T01:24:42.574Z,13.59
2022-08-12T01:25:55.633Z,13.62
2022-08-12T01:26:43.552Z,13.68
2022-08-12T01:27:42.584Z,13.60
2022-08-12T01:28:42.539Z,13.62
2022-08-12T01:29:42.530Z,13.62
2022-08-12T01:30:42.524Z,13.62
2022-08-12T01:31:42.520Z,13.60
2022-08-12T01:32:42.536Z,13.60
2022-08-12T01:33:42.510Z,13.52
2022-08-12T01:34:42.497Z,13.60
2022-08-12T01:35:42.485Z,13.52
2022-08-12T01:36:42.477Z,13.46
2022-08-12T01:37:42.471Z,13.49
2022-08-12T01:38:42.532Z,13.44
2022-08-12T01:40:34.807Z,13.38
2022-08-12T01:40:46.857Z,13.38
2022-08-12T01:41:43.443Z,13.42
2022-08-12T01:42:43.436Z,13.35
2022-08-12T01:43:42.458Z,13.31
2022-08-12T01:44:42.413Z,13.30
2022-08-12T01:45:43.376Z,13.25
2022-08-12T01:46:42.406Z,13.33
2022-08-12T01:47:42.387Z,13.23
2022-08-12T01:48:42.408Z,13.28
2022-08-12T01:49:42.378Z,13.19
2022-08-12T01:50:43.100Z,13.19
2022-08-12T01:52:15.638Z,13.27
2022-08-12T01:52:43.346Z,13.27
2022-08-12T01:53:50.238Z,13.18
2022-08-12T01:54:43.340Z,13.22
2022-08-12T01:55:42.337Z,13.23
2022-08-12T01:56:42.324Z,13.20
2022-08-12T01:57:59.437Z,13.27
2022-08-12T01:58:43.330Z,13.28
2022-08-12T01:59:42.301Z,13.23
2022-08-12T02:00:43.483Z,13.18
2022-08-12T02:01:42.359Z,13.09
2022-08-12T02:02:42.300Z,13.09
2022-08-12T02:03:42.291Z,13.22
2022-08-12T02:04:42.261Z,13.19
2022-08-12T02:05:42.253Z,13.18
2022-08-12T02:06:42.252Z,13.13
2022-08-12T02:07:42.232Z,13.18
2022-08-12T02:08:42.252Z,13.08
2022-08-12T02:09:42.220Z,13.08
2022-08-12T02:10:49.913Z,13.03
2022-08-12T02:11:43.212Z,13.12
2022-08-12T02:12:42.529Z,13.03
2022-08-12T02:13:49.677Z,12.98
2022-08-12T02:14:43.179Z,12.98
2022-08-12T02:15:42.174Z,12.95
2022-08-12T02:16:42.167Z,12.97
2022-08-12T02:17:55.929Z,12.95
2022-08-12T02:18:43.170Z,12.87
2022-08-12T02:19:42.141Z,12.90
2022-08-12T02:20:51.268Z,12.91
2022-08-12T02:21:43.121Z,12.95
2022-08-12T02:22:42.284Z,12.80
2022-08-12T02:23:42.143Z,12.79
2022-08-12T02:24:42.101Z,12.76
2022-08-12T02:25:42.091Z,12.80
2022-08-12T02:26:42.090Z,12.64
2022-08-12T02:27:42.087Z,12.62
2022-08-12T02:28:42.100Z,12.70
2022-08-12T02:29:42.068Z,12.57
2022-08-12T02:30:42.617Z,12.67
2022-08-12T02:31:42.051Z,12.68
2022-08-12T02:32:42.040Z,12.78
2022-08-12T02:33:42.062Z,12.67
2022-08-12T02:34:42.025Z,12.75
2022-08-12T02:35:42.020Z,12.64
2022-08-12T02:36:42.016Z,12.61
2022-08-12T02:37:41.999Z,12.68
2022-08-12T02:38:42.022Z,12.58
2022-08-12T02:39:42.021Z,12.57
2022-08-12T02:40:41.983Z,12.57
2022-08-12T02:41:41.969Z,12.58
2022-08-12T02:42:41.959Z,12.42
2022-08-12T02:43:41.985Z,12.64
2022-08-12T02:44:41.948Z,12.45
2022-08-12T02:45:41.938Z,12.50
2022-08-12T02:46:41.937Z,12.50
2022-08-12T02:47:59.230Z,12.47
2022-08-12T02:48:42.960Z,12.53
2022-08-12T02:49:41.910Z,12.45
2022-08-12T02:50:41.905Z,12.53
2022-08-12T02:51:41.887Z,12.50
2022-08-12T02:52:42.020Z,12.45
2022-08-12T02:53:41.896Z,12.46
2022-08-12T02:54:41.874Z,12.46
2022-08-12T02:55:41.864Z,12.40
2022-08-12T02:56:41.853Z,12.31
2022-08-12T02:57:42.844Z,12.32
2022-08-12T02:58:45.432Z,12.39
2022-08-12T02:59:41.824Z,12.28
2022-08-12T03:00:41.885Z,12.32
2022-08-12T03:01:47.753Z,12.27
2022-08-12T03:02:42.796Z,12.29
2022-08-12T03:03:42.823Z,12.31
2022-08-12T03:04:44.053Z,12.35
2022-08-12T03:05:44.330Z,12.37
2022-08-12T03:06:41.778Z,12.29
2022-08-12T03:07:59.509Z,12.29
2022-08-12T03:08:42.791Z,12.28
2022-08-12T03:10:03.782Z,12.32
2022-08-12T03:10:42.739Z,12.42
2022-08-12T03:11:42.966Z,12.36
2022-08-12T03:12:49.840Z,12.27
2022-08-12T03:13:42.737Z,12.29
2022-08-12T03:14:41.736Z,12.20
2022-08-12T03:15:41.705Z,12.31
2022-08-12T03:16:41.697Z,12.24
2022-08-12T03:17:41.690Z,12.29
2022-08-12T03:18:44.443Z,12.27
2022-08-12T03:20:10.433Z,12.25
2022-08-12T03:20:42.662Z,12.22
2022-08-12T03:22:05.865Z,12.12
2022-08-12T03:22:42.807Z,12.13
2022-08-12T03:23:41.638Z,12.09
2022-08-12T03:24:41.653Z,12.10
2022-08-12T03:25:41.622Z,12.17
2022-08-12T03:26:41.624Z,12.06
2022-08-12T03:27:41.610Z,12.09
2022-08-12T03:28:41.602Z,12.04
2022-08-12T03:29:49.980Z,11.99
2022-08-12T03:30:42.587Z,11.97
2022-08-12T03:31:41.583Z,11.99
2022-08-12T03:32:41.569Z,11.86
2022-08-12T03:33:42.562Z,11.95
2022-08-12T03:34:41.580Z,11.90
2022-08-12T03:35:42.545Z,11.95
2022-08-12T03:36:41.541Z,11.84
2022-08-12T03:37:41.527Z,11.88
2022-08-12T03:38:41.557Z,11.88
2022-08-12T03:39:41.575Z,11.87
2022-08-12T03:40:41.507Z,11.81
2022-08-12T03:41:41.504Z,11.73
2022-08-12T03:42:41.770Z,11.81
2022-08-12T03:43:41.507Z,11.83
2022-08-12T03:44:41.477Z,11.90
2022-08-12T03:45:51.666Z,11.81
2022-08-12T03:46:42.469Z,11.86
2022-08-12T03:47:41.457Z,11.86
2022-08-12T03:48:41.476Z,11.91
2022-08-12T03:49:41.433Z,11.80
2022-08-12T03:50:41.432Z,11.84
2022-08-12T03:51:41.428Z,11.84
2022-08-12T03:52:41.622Z,11.90
2022-08-12T03:53:41.436Z,11.83
2022-08-12T03:54:42.669Z,11.83
2022-08-12T03:55:42.391Z,11.86
2022-08-12T03:56:41.386Z,11.88
2022-08-12T03:57:41.380Z,11.78
2022-08-12T03:58:41.371Z,11.80
2022-08-12T03:59:41.390Z,11.83
2022-08-12T04:00:41.391Z,11.84
2022-08-12T04:01:41.388Z,11.86
2022-08-12T04:02:41.548Z,11.83
2022-08-12T04:03:41.359Z,12.04
2022-08-12T04:04:41.324Z,11.86
2022-08-12T04:05:55.280Z,11.91
2022-08-12T04:06:42.308Z,11.86
2022-08-12T04:07:57.744Z,11.90
2022-08-12T04:08:42.303Z,11.94
2022-08-12T04:09:42.278Z,11.84
2022-08-12T04:10:41.272Z,11.90
2022-08-12T04:11:45.653Z,11.86
2022-08-12T04:12:42.319Z,11.83
2022-08-12T04:13:41.279Z,12.00
2022-08-12T04:14:41.237Z,11.90
2022-08-12T04:15:41.238Z,11.88
2022-08-12T04:16:41.219Z,11.91
2022-08-12T04:18:06.678Z,12.03
2022-08-12T04:18:42.232Z,12.02
2022-08-12T04:19:41.208Z,11.99
2022-08-12T04:20:41.196Z,12.02
2022-08-12T04:22:01.246Z,12.24
2022-08-12T04:22:42.179Z,12.61
2022-08-12T04:23:43.915Z,12.85
2022-08-12T04:24:42.167Z,13.39
2022-08-12T04:25:41.157Z,13.77
2022-08-12T04:26:41.144Z,13.95
2022-08-12T04:27:41.142Z,14.30
2022-08-12T04:28:41.165Z,14.50
2022-08-12T04:30:16.685Z,14.65
2022-08-12T04:30:42.117Z,15.00
2022-08-12T04:31:41.118Z,15.36
2022-08-12T04:32:44.459Z,15.68
2022-08-12T04:33:42.123Z,15.92
2022-08-12T04:34:41.081Z,16.10
2022-08-12T04:35:41.079Z,16.35
2022-08-12T04:36:41.064Z,16.54
2022-08-12T04:37:59.295Z,16.83
2022-08-12T04:38:42.078Z,17.05
2022-08-12T04:39:41.118Z,17.36
2022-08-12T04:40:41.024Z,17.48
2022-08-12T04:41:57.699Z,17.74
2022-08-12T04:42:42.081Z,17.94
2022-08-12T04:44:00.772Z,18.22
2022-08-12T04:44:42.007Z,18.53
2022-08-12T04:45:40.997Z,18.80
2022-08-12T04:46:40.996Z,18.90
2022-08-12T04:47:40.983Z,19.15
2022-08-12T04:48:41.004Z,19.44
2022-08-12T04:49:40.985Z,19.71
2022-08-12T04:50:40.956Z,19.86
2022-08-12T04:51:40.948Z,20.03
2022-08-12T04:52:41.057Z,20.18
2022-08-12T04:53:40.959Z,20.24
2022-08-12T04:54:40.927Z,20.25
2022-08-12T04:55:40.921Z,20.25
2022-08-12T04:56:40.918Z,20.37
2022-08-12T04:57:40.901Z,20.55
2022-08-12T04:58:40.895Z,20.72
2022-08-12T04:59:48.372Z,21.03
2022-08-12T05:00:41.883Z,20.95
2022-08-12T05:01:40.871Z,21.17
2022-08-12T05:02:41.122Z,21.40
2022-08-12T05:03:46.112Z,21.42
2022-08-12T05:04:41.869Z,21.29
2022-08-12T05:05:40.845Z,21.32
2022-08-12T05:06:40.841Z,21.40
2022-08-12T05:07:53.679Z,21.48
2022-08-12T05:08:41.821Z,21.48
2022-08-12T05:10:02.016Z,21.60
2022-08-12T05:10:41.810Z,21.67
2022-08-12T05:11:53.739Z,21.75
2022-08-12T05:12:42.005Z,21.95
2022-08-12T05:13:40.784Z,21.98
2022-08-12T05:14:40.807Z,21.82
2022-08-12T05:16:02.458Z,21.67
2022-08-12T05:16:42.760Z,21.52
2022-08-12T05:17:40.756Z,21.64
2022-08-12T05:18:40.745Z,21.95
2022-08-12T05:19:41.764Z,22.41
2022-08-12T05:20:40.739Z,22.98
2022-08-12T05:21:40.733Z,23.23
2022-08-12T05:22:40.888Z,23.63
2022-08-12T05:23:40.714Z,23.80
2022-08-12T05:24:40.732Z,23.59
2022-08-12T05:25:40.702Z,23.71
2022-08-12T05:26:40.727Z,23.91
2022-08-12T05:27:40.687Z,23.96
2022-08-12T05:28:41.678Z,23.86
2022-08-12T05:30:05.255Z,23.62
2022-08-12T05:30:41.661Z,23.78
2022-08-12T05:31:47.638Z,23.98
2022-08-12T05:32:41.929Z,24.29
2022-08-12T05:33:40.646Z,24.32
2022-08-12T05:34:40.661Z,24.84
2022-08-12T05:35:40.637Z,24.99
2022-08-12T05:36:40.625Z,25.08
2022-08-12T05:37:40.612Z,25.04
2022-08-12T05:38:40.609Z,24.98
2022-08-12T05:39:40.657Z,25.04
2022-08-12T05:40:40.597Z,25.13
2022-08-12T05:41:40.589Z,24.96
2022-08-12T05:42:40.585Z,25.35
2022-08-12T05:43:40.580Z,25.28
2022-08-12T05:44:40.591Z,25.14
2022-08-12T05:45:44.721Z,25.35
2022-08-12T05:46:41.560Z,25.28
2022-08-12T05:47:53.008Z,25.46
2022-08-12T05:48:41.547Z,25.68
2022-08-12T05:49:40.562Z,25.90
2022-08-12T05:50:40.531Z,25.84
2022-08-12T05:51:41.808Z,25.93
2022-08-12T05:52:40.644Z,25.99
2022-08-12T05:53:40.508Z,26.03
2022-08-12T05:54:56.675Z,26.43
2022-08-12T05:55:42.497Z,26.62
2022-08-12T05:56:40.488Z,26.96
2022-08-12T05:57:40.479Z,27.03
2022-08-12T05:58:40.476Z,27.15
2022-08-12T05:59:40.500Z,27.25
2022-08-12T06:00:40.465Z,27.37
2022-08-12T06:02:09.645Z,27.29
2022-08-12T06:02:41.609Z,27.68
2022-08-12T06:03:40.439Z,28.02
2022-08-12T06:04:40.458Z,28.02
2022-08-12T06:05:43.198Z,28.17
2022-08-12T06:06:41.420Z,28.64
2022-08-12T06:08:01.906Z,28.76
2022-08-12T06:08:41.406Z,29.23
2022-08-12T06:09:40.434Z,28.93
2022-08-12T06:10:40.398Z,28.85
2022-08-12T06:11:40.390Z,28.86
2022-08-12T06:12:41.645Z,29.01
2022-08-12T06:13:54.061Z,28.94
2022-08-12T06:14:41.396Z,28.81
2022-08-12T06:15:40.369Z,28.93
2022-08-12T06:16:40.360Z,29.08
2022-08-12T06:17:40.357Z,29.04
2022-08-12T06:18:40.351Z,29.39
2022-08-12T06:20:25.895Z,29.81
2022-08-12T06:20:41.518Z,29.47
2022-08-12T06:21:40.333Z,29.49
2022-08-12T06:22:40.411Z,29.24
2022-08-12T06:23:42.612Z,29.16
2022-08-12T06:24:41.332Z,29.16
2022-08-12T06:25:40.314Z,29.13
2022-08-12T06:26:40.305Z,29.56
2022-08-12T06:27:40.299Z,29.53
2022-08-12T06:28:41.287Z,29.49
2022-08-12T06:30:10.254Z,29.72
2022-08-12T06:30:41.285Z,29.63
2022-08-12T06:31:40.268Z,29.39
2022-08-12T06:32:51.802Z,29.44
2022-08-12T06:33:59.668Z,29.38
2022-08-12T06:35:24.388Z,29.22
2022-08-12T06:35:48.592Z,29.13
2022-08-12T06:36:41.244Z,29.17
2022-08-12T06:37:40.256Z,29.49
2022-08-12T06:38:40.233Z,29.63
2022-08-12T06:39:40.291Z,29.86
2022-08-12T06:40:40.215Z,30.34
2022-08-12T06:41:40.211Z,30.48
2022-08-12T06:42:41.213Z,30.19
2022-08-12T06:44:04.585Z,30.12
2022-08-12T06:44:41.220Z,30.16
2022-08-12T06:45:45.922Z,30.09
2022-08-12T06:46:41.181Z,30.31
2022-08-12T06:47:40.179Z,30.21
2022-08-12T06:48:40.183Z,30.40
2022-08-12T06:49:40.194Z,30.77
2022-08-12T06:50:40.480Z,30.19
2022-08-12T06:51:41.154Z,29.98
2022-08-12T06:52:41.337Z,29.88
2022-08-12T06:53:40.143Z,29.87
2022-08-12T06:54:40.170Z,30.06
2022-08-12T06:55:58.293Z,29.84
2022-08-12T06:57:03.118Z,29.98
2022-08-12T06:58:06.551Z,30.12
2022-08-12T06:58:41.117Z,30.47
2022-08-12T06:59:40.114Z,30.55
2022-08-12T07:00:40.163Z,30.55
2022-08-12T07:01:40.106Z,30.96
2022-08-12T07:02:40.361Z,31.20
2022-08-12T07:03:40.096Z,31.40
2022-08-12T07:04:40.213Z,31.54
2022-08-12T07:05:40.104Z,31.43
2022-08-12T07:06:40.078Z,31.18
2022-08-12T07:07:40.071Z,31.09
2022-08-12T07:08:40.064Z,31.18
2022-08-12T07:10:04.375Z,31.62
2022-08-12T07:10:41.073Z,32.46
2022-08-12T07:11:40.044Z,32.74
2022-08-12T07:12:40.214Z,32.58
2022-08-12T07:14:12.410Z,32.52
2022-08-12T07:14:42.903Z,32.74
2022-08-12T07:15:41.052Z,32.63
2022-08-12T07:16:40.017Z,32.95
2022-08-12T07:17:40.009Z,33.30
2022-08-12T07:18:40.006Z,32.85
2022-08-12T07:19:45.019Z,32.53
2022-08-12T07:20:52.155Z,32.29
2022-08-12T07:21:55.779Z,32.30
2022-08-12T07:22:41.100Z,32.77
2022-08-12T07:23:39.984Z,33.39
2022-08-12T07:24:39.976Z,33.90
2022-08-12T07:25:41.582Z,34.11
2022-08-12T07:26:39.967Z,33.52
2022-08-12T07:27:39.964Z,32.89
2022-08-12T07:28:39.959Z,32.46
2022-08-12T07:30:02.748Z,31.89
2022-08-12T07:30:40.974Z,32.04
2022-08-12T07:31:39.943Z,31.65
2022-08-12T07:32:39.984Z,31.54
2022-08-12T07:33:39.935Z,31.42
2022-08-12T07:34:39.928Z,31.42
2022-08-12T07:35:39.947Z,31.90
2022-08-12T07:36:39.922Z,31.92
2022-08-12T07:37:39.910Z,31.69
2022-08-12T07:38:39.902Z,31.94
2022-08-12T07:39:51.062Z,31.71
2022-08-12T07:40:40.917Z,31.07
2022-08-12T07:41:39.893Z,30.77
2022-08-12T07:42:40.120Z,30.61
2022-08-12T07:43:39.877Z,30.08
2022-08-12T07:44:39.878Z,29.98
2022-08-12T07:45:39.892Z,30.24
2022-08-12T07:46:39.860Z,30.88
2022-08-12T07:47:39.857Z,30.92
2022-08-12T07:48:39.852Z,30.81
2022-08-12T07:50:04.962Z,31.06
2022-08-12T07:50:40.862Z,30.75
2022-08-12T07:51:39.844Z,30.78
2022-08-12T07:52:39.976Z,30.65
2022-08-12T07:53:48.606Z,30.48
2022-08-12T07:54:40.816Z,30.23
2022-08-12T07:55:39.837Z,30.47
2022-08-12T07:56:39.812Z,30.28
2022-08-12T07:57:39.804Z,30.18
2022-08-12T07:58:41.980Z,29.95
2022-08-12T07:59:40.795Z,30.21
2022-08-12T08:00:39.821Z,30.28
2022-08-12T08:01:39.840Z,30.57
2022-08-12T08:02:39.924Z,30.97
2022-08-12T08:03:47.607Z,30.84
2022-08-12T08:04:40.762Z,30.50
2022-08-12T08:05:39.795Z,30.27
2022-08-12T08:06:39.753Z,30.31
2022-08-12T08:07:39.746Z,30.16
2022-08-12T08:08:39.744Z,29.81
2022-08-12T08:09:39.735Z,30.09
2022-08-12T08:10:39.731Z,30.57
2022-08-12T08:11:39.756Z,30.43
2022-08-12T08:12:39.910Z,29.97
2022-08-12T08:13:39.713Z,30.02
2022-08-12T08:14:39.707Z,29.75
2022-08-12T08:16:01.947Z,29.68
2022-08-12T08:16:41.719Z,29.51
2022-08-12T08:17:39.684Z,29.61
2022-08-12T08:18:39.681Z,29.47
2022-08-12T08:20:03.104Z,29.35
2022-08-12T08:20:40.675Z,29.19
2022-08-12T08:21:39.693Z,29.29
2022-08-12T08:22:42.090Z,29.47
2022-08-12T08:23:39.650Z,29.01
2022-08-12T08:24:39.645Z,29.13
2022-08-12T08:25:39.642Z,29.16
2022-08-12T08:26:39.675Z,29.45
2022-08-12T08:27:39.639Z,29.65
2022-08-12T08:28:39.625Z,29.91
2022-08-12T08:29:39.621Z,29.84
2022-08-12T08:30:39.619Z,29.79
2022-08-12T08:31:40.616Z,29.69
2022-08-12T08:32:40.815Z,29.76
2022-08-12T08:34:04.961Z,29.54
2022-08-12T08:34:53.656Z,29.36
2022-08-12T08:35:47.147Z,29.49
2022-08-12T08:36:40.604Z,29.16
2022-08-12T08:37:39.575Z,29.45
2022-08-12T08:38:39.572Z,29.63
2022-08-12T08:39:39.629Z,29.88
2022-08-12T08:40:39.555Z,29.78
2022-08-12T08:42:15.752Z,29.61
2022-08-12T08:42:40.804Z,29.12
2022-08-12T08:43:44.533Z,29.60
2022-08-12T08:44:40.531Z,29.73
2022-08-12T08:45:39.524Z,29.56
2022-08-12T08:46:39.562Z,29.63
2022-08-12T08:47:39.514Z,29.54
2022-08-12T08:48:39.506Z,29.59
2022-08-12T08:49:39.510Z,29.79
2022-08-12T08:50:39.494Z,29.81
2022-08-12T08:51:39.512Z,30.21
2022-08-12T08:52:40.986Z,29.78
2022-08-12T08:53:39.478Z,29.98
2022-08-12T08:54:39.470Z,30.15
2022-08-12T08:56:03.697Z,29.81
2022-08-12T08:56:41.486Z,29.29
2022-08-12T08:57:43.622Z,29.29
2022-08-12T08:58:39.453Z,29.49
2022-08-12T08:59:39.437Z,29.87
2022-08-12T09:00:39.429Z,29.82
2022-08-12T09:01:39.507Z,30.32
2022-08-12T09:02:39.538Z,30.30
2022-08-12T09:05:08.205Z,30.23
2022-08-12T09:05:13.456Z,30.35
2022-08-12T09:05:43.177Z,29.82
2022-08-12T09:06:41.971Z,29.56
2022-08-12T09:07:51.683Z,29.65
2022-08-12T09:08:40.378Z,29.84
2022-08-12T09:10:02.863Z,29.76
2022-08-12T09:10:45.165Z,29.75
2022-08-12T09:12:11.587Z,29.38
2022-08-12T09:12:42.425Z,28.91
2022-08-12T09:14:11.333Z,28.75
2022-08-12T09:14:40.330Z,28.72
2022-08-12T09:15:41.546Z,28.91
2022-08-12T09:16:42.854Z,28.98
2022-08-12T09:18:41.161Z,29.38
2022-08-12T09:19:39.306Z,29.24
2022-08-12T09:20:39.300Z,29.13
2022-08-12T09:21:54.536Z,29.12
2022-08-12T09:22:40.279Z,29.12
2022-08-12T09:24:00.751Z,29.10
2022-08-12T09:24:40.299Z,29.26
2022-08-12T09:25:39.261Z,29.27
2022-08-12T09:26:46.204Z,29.29
2022-08-12T09:28:03.521Z,29.01
2022-08-12T09:28:40.244Z,29.16
2022-08-12T09:30:11.999Z,29.26
2022-08-12T09:30:41.785Z,29.57
2022-08-12T09:32:07.652Z,29.71
2022-08-12T09:33:01.539Z,29.71
2022-08-12T09:34:27.409Z,29.63
2022-08-12T09:34:42.198Z,28.97
2022-08-12T09:35:43.246Z,28.67
2022-08-12T09:36:57.761Z,28.85
2022-08-12T09:37:57.936Z,28.84
2022-08-12T09:38:40.166Z,28.66
2022-08-12T09:40:05.845Z,28.60
2022-08-12T09:41:01.590Z,28.88
2022-08-12T09:42:33.734Z,28.82
2022-08-12T09:42:49.226Z,28.66
2022-08-12T09:43:41.137Z,28.74
2022-08-12T09:44:40.214Z,28.81
2022-08-12T09:46:07.014Z,28.57
2022-08-12T09:46:40.181Z,28.37
2022-08-12T09:47:39.126Z,28.39
2022-08-12T09:48:39.928Z,28.37
2022-08-12T09:49:42.621Z,28.20
2022-08-12T09:50:40.114Z,28.12
2022-08-12T09:51:43.812Z,28.19
2022-08-12T09:52:39.098Z,28.15
2022-08-12T09:53:39.671Z,27.96
2022-08-12T09:54:42.765Z,27.82
2022-08-12T09:56:05.294Z,27.70
2022-08-12T09:56:59.404Z,27.77
2022-08-12T09:58:51.090Z,28.02
2022-08-12T09:58:57.694Z,28.10
2022-08-12T10:00:17.553Z,28.26
2022-08-12T10:00:52.184Z,28.27
2022-08-12T10:02:41.856Z,28.32
2022-08-12T10:02:53.159Z,28.14
2022-08-12T10:04:03.507Z,28.14
2022-08-12T10:04:40.348Z,28.01
2022-08-12T10:06:26.957Z,28.00
2022-08-12T10:06:54.636Z,27.95
2022-08-12T10:07:40.924Z,28.05
2022-08-12T10:08:38.950Z,27.80
2022-08-12T10:09:58.011Z,28.05
2022-08-12T10:10:42.520Z,28.15
2022-08-12T10:12:07.729Z,28.14
2022-08-12T10:12:39.947Z,27.96
2022-08-12T10:13:39.810Z,28.02
2022-08-12T10:14:39.072Z,28.08
2022-08-12T10:16:00.925Z,27.73
2022-08-12T10:16:39.888Z,27.67
2022-08-12T10:18:05.948Z,27.77
2022-08-12T10:18:52.010Z,27.82
2022-08-12T10:19:39.869Z,27.93
2022-08-12T10:20:38.862Z,28.04
2022-08-12T10:21:38.858Z,28.08
2022-08-12T10:22:41.092Z,28.11
2022-08-12T10:23:40.169Z,28.15
2022-08-12T10:24:39.831Z,28.25
2022-08-12T10:26:35.862Z,28.04
2022-08-12T10:26:39.809Z,28.00
2022-08-12T10:28:05.789Z,28.04
2022-08-12T10:28:39.870Z,28.10
2022-08-12T10:30:03.333Z,28.05
2022-08-12T10:30:44.226Z,27.98
2022-08-12T10:31:58.620Z,27.98
2022-08-12T10:33:02.438Z,28.07
2022-08-12T10:33:55.161Z,28.00
2022-08-12T10:34:39.764Z,27.87
2022-08-12T10:35:39.747Z,27.83
2022-08-12T10:36:40.278Z,27.87
2022-08-12T10:38:36.642Z,27.67
2022-08-12T10:38:41.423Z,27.49
2022-08-12T10:40:02.233Z,27.60
2022-08-12T10:40:39.767Z,27.67
2022-08-12T10:41:57.811Z,27.80
2022-08-12T10:42:39.765Z,27.93
2022-08-12T10:43:56.450Z,28.14
2022-08-12T10:44:39.696Z,28.23
2022-08-12T10:45:38.804Z,28.22
2022-08-12T10:46:38.675Z,28.10
2022-08-12T10:48:20.456Z,28.08
2022-08-12T10:48:39.679Z,27.96
2022-08-12T10:50:02.381Z,27.78
2022-08-12T10:50:58.410Z,28.04
2022-08-12T10:52:03.940Z,28.08
2022-08-12T10:52:39.626Z,28.45
2022-08-12T10:53:44.344Z,28.49
2022-08-12T10:54:39.610Z,28.49
2022-08-12T10:55:38.608Z,28.47
2022-08-12T10:56:38.602Z,28.42
2022-08-12T10:58:14.232Z,28.38
2022-08-12T10:58:39.606Z,28.29
2022-08-12T11:00:31.757Z,28.59
2022-08-12T11:00:45.541Z,28.48
2022-08-12T11:04:18.084Z,28.42
2022-08-12T11:04:23.068Z,28.17
2022-08-12T11:04:26.952Z,28.38
2022-08-12T11:04:44.832Z,28.32
2022-08-12T11:07:07.901Z,28.39
2022-08-12T11:07:07.994Z,28.37
2022-08-12T11:08:35.053Z,28.56
2022-08-12T11:08:43.669Z,28.37
2022-08-12T11:09:55.758Z,28.22
2022-08-12T11:10:39.536Z,28.22
2022-08-12T11:12:35.874Z,28.20
2022-08-12T11:12:59.331Z,28.22
2022-08-12T11:13:46.524Z,28.14
2022-08-12T11:14:50.034Z,28.19
2022-08-12T11:16:03.238Z,28.08
2022-08-12T11:16:39.457Z,28.35
2022-08-12T11:17:54.479Z,28.44
2022-08-12T11:18:39.459Z,28.44
2022-08-12T11:19:38.423Z,28.45
2022-08-12T11:20:38.414Z,28.37
2022-08-12T11:21:56.917Z,28.30
2022-08-12T11:22:39.475Z,28.19
2022-08-12T11:23:38.390Z,28.19
2022-08-12T11:24:38.417Z,28.25
2022-08-12T11:25:56.447Z,28.45
2022-08-12T11:26:39.374Z,28.67
2022-08-12T11:27:38.370Z,28.74
2022-08-12T11:28:38.858Z,28.70
2022-08-12T11:30:02.086Z,28.74
2022-08-12T11:30:39.337Z,28.67
2022-08-12T11:31:55.895Z,28.56
2022-08-12T11:32:39.595Z,28.63
2022-08-12T11:34:06.275Z,28.67
2022-08-12T11:34:52.704Z,28.57
2022-08-12T11:35:39.298Z,28.54
2022-08-12T11:36:39.303Z,28.44
2022-08-12T11:37:57.878Z,28.48
2022-08-12T11:38:39.267Z,28.44
2022-08-12T11:40:02.866Z,28.49
2022-08-12T11:40:42.492Z,28.42
2022-08-12T11:41:38.230Z,28.37
2022-08-12T11:42:45.913Z,28.52
2022-08-12T11:43:50.754Z,28.57
2022-08-12T11:44:42.968Z,28.54
2022-08-12T11:45:38.840Z,28.45
2022-08-12T11:46:38.189Z,28.59
2022-08-12T11:47:40.257Z,28.49
2022-08-12T11:48:52.448Z,28.41
2022-08-12T11:49:39.195Z,28.59
2022-08-12T11:50:40.599Z,28.57
2022-08-12T11:51:39.893Z,28.39
2022-08-12T11:53:57.032Z,28.59
2022-08-12T11:53:57.591Z,28.42
2022-08-12T11:54:39.152Z,28.82
2022-08-12T11:55:45.358Z,28.85
2022-08-12T11:56:41.958Z,28.69
2022-08-12T11:58:18.384Z,28.84
2022-08-12T12:00:55.320Z,28.85
2022-08-12T12:02:02.774Z,28.30
2022-08-12T12:02:39.157Z,28.12
2022-08-12T12:03:40.498Z,28.23
2022-08-12T12:04:39.092Z,28.30
2022-08-12T12:05:41.770Z,28.52
2022-08-12T12:06:39.041Z,28.47
2022-08-12T12:08:41.681Z,28.47
2022-08-12T12:08:42.680Z,28.47
2022-08-12T12:09:52.586Z,28.62
2022-08-12T12:10:39.021Z,28.79
2022-08-12T12:11:48.721Z,29.02
2022-08-12T12:12:41.548Z,29.13
2022-08-12T12:14:08.775Z,29.31
2022-08-12T12:14:39.238Z,29.32
2022-08-12T12:15:41.270Z,29.32
2022-08-12T12:16:39.755Z,29.14
2022-08-12T12:17:38.492Z,29.14
2022-08-12T12:18:37.962Z,29.16
2022-08-12T12:19:39.885Z,29.08
2022-08-12T12:20:38.956Z,28.86
2022-08-12T12:21:47.312Z,28.81
2022-08-12T12:22:39.034Z,28.79
2022-08-12T12:23:37.936Z,28.82
2022-08-12T12:24:37.944Z,28.76
2022-08-12T12:25:59.661Z,29.07
2022-08-12T12:26:38.904Z,29.16
2022-08-12T12:28:04.339Z,28.86
2022-08-12T12:28:39.733Z,28.94
2022-08-12T12:30:13.660Z,29.04
2022-08-12T12:30:38.879Z,28.86
2022-08-12T12:32:10.897Z,28.88
2022-08-12T12:32:38.861Z,29.27
2022-08-12T12:33:57.265Z,29.24
2022-08-12T12:34:38.874Z,29.22
2022-08-12T12:36:06.575Z,29.29
2022-08-12T12:36:38.840Z,29.23
2022-08-12T12:38:04.617Z,29.14
2022-08-12T12:38:38.818Z,29.16
2022-08-12T12:39:54.645Z,29.16
2022-08-12T12:40:39.724Z,29.05
2022-08-12T12:42:44.240Z,29.08
2022-08-12T12:42:44.332Z,29.16
2022-08-12T12:43:44.778Z,29.24
2022-08-12T12:44:42.131Z,29.32
2022-08-12T12:45:38.765Z,29.14
2022-08-12T12:46:37.755Z,29.23
2022-08-12T12:47:37.747Z,29.04
2022-08-12T12:48:39.598Z,28.88
2022-08-12T12:49:38.769Z,28.91
2022-08-12T12:50:42.270Z,28.93
2022-08-12T12:51:55.100Z,29.20
2022-08-12T12:52:38.714Z,29.26
2022-08-12T12:54:06.263Z,29.23
2022-08-12T12:54:38.721Z,29.14
2022-08-12T12:55:37.688Z,29.20